sensor_id;sensor_type;location;lat;lon;timestamp;P1;durP1;ratioP1;P2;durP2;ratioP2
38455;SDS011;24237;50.106;20.014;2022-12-18T00:01:18;93.85;;;31.63;;
38455;SDS011;24237;50.106;20.014;2022-12-18T00:03:47;84.88;;;28.60;;
38455;SDS011;24237;50.106;20.014;2022-12-18T00:06:14;92.70;;;30.85;;
38455;SDS011;24237;50.106;20.014;2022-12-18T00:08:40;87.13;;;31.52;;
38455;SDS011;24237;50.106;20.014;2022-12-18T00:11:07;95.68;;;31.67;;
38455;SDS011;24237;50.106;20.014;2022-12-18T00:13:35;78.82;;;26.52;;
38455;SDS011;24237;50.106;20.014;2022-12-18T00:16:06;91.45;;;31.55;;
38455;SDS011;24237;50.106;20.014;2022-12-18T00:18:33;104.10;;;31.85;;
38455;SDS011;24237;50.106;20.014;2022-12-18T00:21:03;96.43;;;32.42;;
38455;SDS011;24237;50.106;20.014;2022-12-18T00:23:32;86.95;;;27.55;;
38455;SDS011;24237;50.106;20.014;2022-12-18T00:26:03;98.30;;;29.20;;
38455;SDS011;24237;50.106;20.014;2022-12-18T00:28:31;102.53;;;31.10;;
38455;SDS011;24237;50.106;20.014;2022-12-18T00:31:08;99.10;;;32.33;;
38455;SDS011;24237;50.106;20.014;2022-12-18T00:33:38;108.63;;;31.38;;
38455;SDS011;24237;50.106;20.014;2022-12-18T00:36:06;96.60;;;31.25;;
38455;SDS011;24237;50.106;20.014;2022-12-18T00:38:35;94.47;;;31.63;;
38455;SDS011;24237;50.106;20.014;2022-12-18T00:41:01;91.05;;;29.20;;
38455;SDS011;24237;50.106;20.014;2022-12-18T00:43:27;85.57;;;30.63;;
38455;SDS011;24237;50.106;20.014;2022-12-18T00:45:53;80.18;;;28.50;;
38455;SDS011;24237;50.106;20.014;2022-12-18T00:48:19;71.78;;;24.48;;
38455;SDS011;24237;50.106;20.014;2022-12-18T00:50:45;69.70;;;24.70;;
38455;SDS011;24237;50.106;20.014;2022-12-18T00:53:12;67.72;;;22.73;;
38455;SDS011;24237;50.106;20.014;2022-12-18T00:55:40;59.08;;;19.60;;
38455;SDS011;24237;50.106;20.014;2022-12-18T00:58:06;56.00;;;19.15;;
38455;SDS011;24237;50.106;20.014;2022-12-18T01:00:33;54.20;;;19.98;;
38455;SDS011;24237;50.106;20.014;2022-12-18T01:02:59;55.03;;;20.27;;
38455;SDS011;24237;50.106;20.014;2022-12-18T01:05:25;52.47;;;18.50;;
38455;SDS011;24237;50.106;20.014;2022-12-18T01:07:50;57.42;;;18.33;;
38455;SDS011;24237;50.106;20.014;2022-12-18T01:10:16;44.63;;;16.50;;
38455;SDS011;24237;50.106;20.014;2022-12-18T01:12:42;52.78;;;17.17;;
38455;SDS011;24237;50.106;20.014;2022-12-18T01:15:08;43.10;;;17.00;;
38455;SDS011;24237;50.106;20.014;2022-12-18T01:17:34;50.17;;;16.38;;
38455;SDS011;24237;50.106;20.014;2022-12-18T01:20:00;45.90;;;16.85;;
38455;SDS011;24237;50.106;20.014;2022-12-18T01:22:26;48.67;;;18.30;;
38455;SDS011;24237;50.106;20.014;2022-12-18T01:24:52;53.53;;;18.88;;
38455;SDS011;24237;50.106;20.014;2022-12-18T01:27:17;50.13;;;18.77;;
38455;SDS011;24237;50.106;20.014;2022-12-18T01:29:43;49.22;;;18.08;;
38455;SDS011;24237;50.106;20.014;2022-12-18T01:32:08;44.05;;;14.65;;
38455;SDS011;24237;50.106;20.014;2022-12-18T01:34:37;45.53;;;16.92;;
38455;SDS011;24237;50.106;20.014;2022-12-18T01:37:04;50.20;;;17.27;;
38455;SDS011;24237;50.106;20.014;2022-12-18T01:39:29;47.60;;;19.37;;
38455;SDS011;24237;50.106;20.014;2022-12-18T01:41:57;44.42;;;17.38;;
38455;SDS011;24237;50.106;20.014;2022-12-18T01:47:38;54.25;;;17.77;;
38455;SDS011;24237;50.106;20.014;2022-12-18T01:50:10;47.38;;;18.00;;
38455;SDS011;24237;50.106;20.014;2022-12-18T01:52:43;46.17;;;18.33;;
38455;SDS011;24237;50.106;20.014;2022-12-18T01:55:11;52.75;;;17.92;;
38455;SDS011;24237;50.106;20.014;2022-12-18T01:57:39;50.00;;;19.42;;
38455;SDS011;24237;50.106;20.014;2022-12-18T02:00:08;44.55;;;16.17;;
38455;SDS011;24237;50.106;20.014;2022-12-18T02:02:40;48.53;;;15.45;;
38455;SDS011;24237;50.106;20.014;2022-12-18T02:10:57;45.50;;;18.10;;
38455;SDS011;24237;50.106;20.014;2022-12-18T02:13:53;48.22;;;17.20;;
38455;SDS011;24237;50.106;20.014;2022-12-18T02:16:19;44.38;;;15.65;;
38455;SDS011;24237;50.106;20.014;2022-12-18T02:18:59;42.25;;;15.45;;
38455;SDS011;24237;50.106;20.014;2022-12-18T02:24:11;50.25;;;17.77;;
38455;SDS011;24237;50.106;20.014;2022-12-18T02:27:01;46.80;;;18.43;;
38455;SDS011;24237;50.106;20.014;2022-12-18T02:32:16;44.75;;;17.02;;
38455;SDS011;24237;50.106;20.014;2022-12-18T02:34:47;47.78;;;17.73;;
38455;SDS011;24237;50.106;20.014;2022-12-18T02:37:16;41.75;;;16.85;;
38455;SDS011;24237;50.106;20.014;2022-12-18T02:39:43;43.45;;;16.48;;
38455;SDS011;24237;50.106;20.014;2022-12-18T02:42:12;52.35;;;17.88;;
38455;SDS011;24237;50.106;20.014;2022-12-18T02:44:45;37.65;;;14.07;;
38455;SDS011;24237;50.106;20.014;2022-12-18T02:47:13;43.50;;;15.07;;
38455;SDS011;24237;50.106;20.014;2022-12-18T02:49:49;42.83;;;17.52;;
38455;SDS011;24237;50.106;20.014;2022-12-18T02:58:20;47.30;;;17.13;;
38455;SDS011;24237;50.106;20.014;2022-12-18T03:03:35;47.50;;;18.42;;
38455;SDS011;24237;50.106;20.014;2022-12-18T03:06:08;53.53;;;20.00;;
38455;SDS011;24237;50.106;20.014;2022-12-18T03:08:39;53.63;;;18.70;;
38455;SDS011;24237;50.106;20.014;2022-12-18T03:11:13;52.95;;;20.50;;
38455;SDS011;24237;50.106;20.014;2022-12-18T03:13:44;58.38;;;20.70;;
38455;SDS011;24237;50.106;20.014;2022-12-18T03:16:26;51.80;;;19.83;;
38455;SDS011;24237;50.106;20.014;2022-12-18T03:19:04;55.50;;;21.25;;
38455;SDS011;24237;50.106;20.014;2022-12-18T03:21:40;62.80;;;20.38;;
38455;SDS011;24237;50.106;20.014;2022-12-18T03:24:12;56.00;;;20.13;;
38455;SDS011;24237;50.106;20.014;2022-12-18T03:26:40;60.15;;;19.95;;
38455;SDS011;24237;50.106;20.014;2022-12-18T03:29:09;65.18;;;22.63;;
38455;SDS011;24237;50.106;20.014;2022-12-18T03:31:42;65.68;;;23.02;;
38455;SDS011;24237;50.106;20.014;2022-12-18T03:34:19;71.80;;;24.70;;
38455;SDS011;24237;50.106;20.014;2022-12-18T03:36:50;68.80;;;25.95;;
38455;SDS011;24237;50.106;20.014;2022-12-18T03:39:15;88.05;;;28.70;;
38455;SDS011;24237;50.106;20.014;2022-12-18T03:41:45;82.95;;;27.98;;
38455;SDS011;24237;50.106;20.014;2022-12-18T03:52:34;86.15;;;27.63;;
38455;SDS011;24237;50.106;20.014;2022-12-18T03:55:03;81.65;;;26.80;;
38455;SDS011;24237;50.106;20.014;2022-12-18T03:57:32;80.90;;;26.38;;
38455;SDS011;24237;50.106;20.014;2022-12-18T04:00:00;74.67;;;26.10;;
38455;SDS011;24237;50.106;20.014;2022-12-18T04:02:28;78.60;;;27.30;;
38455;SDS011;24237;50.106;20.014;2022-12-18T04:04:56;76.38;;;26.20;;
38455;SDS011;24237;50.106;20.014;2022-12-18T04:07:25;80.88;;;27.10;;
38455;SDS011;24237;50.106;20.014;2022-12-18T04:09:52;90.35;;;27.35;;
38455;SDS011;24237;50.106;20.014;2022-12-18T04:12:23;77.00;;;26.75;;
38455;SDS011;24237;50.106;20.014;2022-12-18T04:14:51;84.90;;;28.15;;
38455;SDS011;24237;50.106;20.014;2022-12-18T04:17:16;77.78;;;27.42;;
38455;SDS011;24237;50.106;20.014;2022-12-18T04:19:42;82.25;;;26.40;;
38455;SDS011;24237;50.106;20.014;2022-12-18T04:22:09;93.43;;;29.02;;
38455;SDS011;24237;50.106;20.014;2022-12-18T04:24:35;92.25;;;29.10;;
38455;SDS011;24237;50.106;20.014;2022-12-18T04:27:01;83.75;;;26.63;;
38455;SDS011;24237;50.106;20.014;2022-12-18T04:29:27;86.10;;;29.35;;
38455;SDS011;24237;50.106;20.014;2022-12-18T04:31:53;82.35;;;27.80;;
38455;SDS011;24237;50.106;20.014;2022-12-18T04:34:19;87.88;;;28.80;;
38455;SDS011;24237;50.106;20.014;2022-12-18T04:36:45;85.60;;;26.85;;
38455;SDS011;24237;50.106;20.014;2022-12-18T04:39:11;80.18;;;27.50;;
38455;SDS011;24237;50.106;20.014;2022-12-18T04:41:37;93.38;;;27.83;;
38455;SDS011;24237;50.106;20.014;2022-12-18T04:44:02;81.00;;;28.55;;
38455;SDS011;24237;50.106;20.014;2022-12-18T04:46:29;90.45;;;27.65;;
38455;SDS011;24237;50.106;20.014;2022-12-18T04:48:54;99.60;;;28.75;;
38455;SDS011;24237;50.106;20.014;2022-12-18T04:51:20;89.43;;;29.88;;
38455;SDS011;24237;50.106;20.014;2022-12-18T04:53:46;100.38;;;30.45;;
38455;SDS011;24237;50.106;20.014;2022-12-18T04:56:12;87.38;;;29.42;;
38455;SDS011;24237;50.106;20.014;2022-12-18T04:58:40;85.68;;;27.65;;
38455;SDS011;24237;50.106;20.014;2022-12-18T05:03:33;91.63;;;29.33;;
38455;SDS011;24237;50.106;20.014;2022-12-18T05:05:59;109.00;;;29.35;;
38455;SDS011;24237;50.106;20.014;2022-12-18T05:08:26;88.72;;;28.08;;
38455;SDS011;24237;50.106;20.014;2022-12-18T05:13:43;81.80;;;25.83;;
38455;SDS011;24237;50.106;20.014;2022-12-18T05:16:10;81.35;;;27.55;;
38455;SDS011;24237;50.106;20.014;2022-12-18T05:18:37;101.18;;;29.67;;
38455;SDS011;24237;50.106;20.014;2022-12-18T05:21:03;85.60;;;27.90;;
38455;SDS011;24237;50.106;20.014;2022-12-18T05:23:29;85.07;;;28.73;;
38455;SDS011;24237;50.106;20.014;2022-12-18T05:25:56;103.22;;;30.65;;
38455;SDS011;24237;50.106;20.014;2022-12-18T05:28:23;92.30;;;30.00;;
38455;SDS011;24237;50.106;20.014;2022-12-18T05:30:51;104.70;;;30.38;;
38455;SDS011;24237;50.106;20.014;2022-12-18T05:33:20;91.85;;;27.92;;
38455;SDS011;24237;50.106;20.014;2022-12-18T05:35:53;99.35;;;31.08;;
38455;SDS011;24237;50.106;20.014;2022-12-18T05:38:20;88.13;;;29.10;;
38455;SDS011;24237;50.106;20.014;2022-12-18T05:40:48;98.50;;;31.35;;
38455;SDS011;24237;50.106;20.014;2022-12-18T05:43:14;95.38;;;27.35;;
38455;SDS011;24237;50.106;20.014;2022-12-18T05:45:41;91.68;;;25.38;;
38455;SDS011;24237;50.106;20.014;2022-12-18T05:48:07;91.55;;;30.42;;
38455;SDS011;24237;50.106;20.014;2022-12-18T05:50:36;96.43;;;30.33;;
38455;SDS011;24237;50.106;20.014;2022-12-18T05:53:04;101.88;;;29.17;;
38455;SDS011;24237;50.106;20.014;2022-12-18T05:55:34;92.70;;;29.25;;
38455;SDS011;24237;50.106;20.014;2022-12-18T05:58:01;95.07;;;28.98;;
38455;SDS011;24237;50.106;20.014;2022-12-18T06:00:27;101.20;;;30.75;;
38455;SDS011;24237;50.106;20.014;2022-12-18T06:02:53;96.93;;;30.27;;
38455;SDS011;24237;50.106;20.014;2022-12-18T06:05:19;103.70;;;30.58;;
38455;SDS011;24237;50.106;20.014;2022-12-18T06:07:44;95.07;;;27.90;;
38455;SDS011;24237;50.106;20.014;2022-12-18T06:10:10;80.35;;;28.42;;
38455;SDS011;24237;50.106;20.014;2022-12-18T06:12:37;98.97;;;29.47;;
38455;SDS011;24237;50.106;20.014;2022-12-18T06:15:03;87.80;;;27.92;;
38455;SDS011;24237;50.106;20.014;2022-12-18T06:17:29;92.15;;;29.98;;
38455;SDS011;24237;50.106;20.014;2022-12-18T06:19:56;90.80;;;30.52;;
38455;SDS011;24237;50.106;20.014;2022-12-18T06:22:22;87.40;;;29.75;;
38455;SDS011;24237;50.106;20.014;2022-12-18T06:24:47;91.50;;;29.48;;
38455;SDS011;24237;50.106;20.014;2022-12-18T06:27:13;93.38;;;30.45;;
38455;SDS011;24237;50.106;20.014;2022-12-18T06:29:39;93.25;;;29.23;;
38455;SDS011;24237;50.106;20.014;2022-12-18T06:32:04;87.45;;;28.83;;
38455;SDS011;24237;50.106;20.014;2022-12-18T06:34:31;95.18;;;29.33;;
38455;SDS011;24237;50.106;20.014;2022-12-18T06:36:57;97.72;;;29.85;;
38455;SDS011;24237;50.106;20.014;2022-12-18T06:39:23;106.57;;;30.17;;
38455;SDS011;24237;50.106;20.014;2022-12-18T06:41:49;86.32;;;28.73;;
38455;SDS011;24237;50.106;20.014;2022-12-18T06:44:15;96.80;;;30.45;;
38455;SDS011;24237;50.106;20.014;2022-12-18T06:46:41;100.03;;;31.10;;
38455;SDS011;24237;50.106;20.014;2022-12-18T06:49:06;92.75;;;29.98;;
38455;SDS011;24237;50.106;20.014;2022-12-18T06:54:02;85.03;;;26.33;;
38455;SDS011;24237;50.106;20.014;2022-12-18T06:56:28;92.40;;;28.55;;
38455;SDS011;24237;50.106;20.014;2022-12-18T06:58:54;93.75;;;29.85;;
38455;SDS011;24237;50.106;20.014;2022-12-18T07:01:20;95.32;;;30.15;;
38455;SDS011;24237;50.106;20.014;2022-12-18T07:03:46;86.60;;;28.23;;
38455;SDS011;24237;50.106;20.014;2022-12-18T07:06:17;91.57;;;29.05;;
38455;SDS011;24237;50.106;20.014;2022-12-18T07:08:44;99.82;;;30.20;;
38455;SDS011;24237;50.106;20.014;2022-12-18T07:11:13;90.88;;;28.95;;
38455;SDS011;24237;50.106;20.014;2022-12-18T07:13:39;81.70;;;29.83;;
38455;SDS011;24237;50.106;20.014;2022-12-18T07:16:06;86.38;;;29.85;;
38455;SDS011;24237;50.106;20.014;2022-12-18T07:18:39;93.30;;;28.52;;
38455;SDS011;24237;50.106;20.014;2022-12-18T07:21:06;97.47;;;28.92;;
38455;SDS011;24237;50.106;20.014;2022-12-18T07:23:36;83.10;;;29.08;;
38455;SDS011;24237;50.106;20.014;2022-12-18T07:26:05;91.25;;;28.27;;
38455;SDS011;24237;50.106;20.014;2022-12-18T07:28:32;95.65;;;28.27;;
38455;SDS011;24237;50.106;20.014;2022-12-18T07:31:02;91.65;;;29.00;;
38455;SDS011;24237;50.106;20.014;2022-12-18T07:33:40;93.53;;;29.05;;
38455;SDS011;24237;50.106;20.014;2022-12-18T07:36:06;84.22;;;29.23;;
38455;SDS011;24237;50.106;20.014;2022-12-18T07:38:34;103.28;;;31.10;;
38455;SDS011;24237;50.106;20.014;2022-12-18T07:41:08;94.22;;;32.10;;
38455;SDS011;24237;50.106;20.014;2022-12-18T07:43:35;91.03;;;29.13;;
38455;SDS011;24237;50.106;20.014;2022-12-18T07:46:02;87.15;;;30.80;;
38455;SDS011;24237;50.106;20.014;2022-12-18T07:48:28;93.85;;;31.77;;
38455;SDS011;24237;50.106;20.014;2022-12-18T07:50:57;98.45;;;31.13;;
38455;SDS011;24237;50.106;20.014;2022-12-18T07:53:24;95.85;;;30.00;;
38455;SDS011;24237;50.106;20.014;2022-12-18T07:55:54;90.68;;;30.52;;
38455;SDS011;24237;50.106;20.014;2022-12-18T07:58:28;93.65;;;30.27;;
38455;SDS011;24237;50.106;20.014;2022-12-18T08:00:54;91.32;;;30.35;;
38455;SDS011;24237;50.106;20.014;2022-12-18T08:03:26;88.22;;;29.40;;
38455;SDS011;24237;50.106;20.014;2022-12-18T08:05:52;96.72;;;29.88;;
38455;SDS011;24237;50.106;20.014;2022-12-18T08:08:22;89.38;;;28.52;;
38455;SDS011;24237;50.106;20.014;2022-12-18T08:10:48;97.00;;;30.90;;
38455;SDS011;24237;50.106;20.014;2022-12-18T08:13:14;85.07;;;29.45;;
38455;SDS011;24237;50.106;20.014;2022-12-18T08:15:40;88.57;;;29.80;;
38455;SDS011;24237;50.106;20.014;2022-12-18T08:18:05;83.68;;;28.90;;
38455;SDS011;24237;50.106;20.014;2022-12-18T08:20:31;87.05;;;31.10;;
38455;SDS011;24237;50.106;20.014;2022-12-18T08:22:57;97.15;;;32.50;;
38455;SDS011;24237;50.106;20.014;2022-12-18T08:25:23;84.55;;;27.65;;
38455;SDS011;24237;50.106;20.014;2022-12-18T08:27:51;86.57;;;29.95;;
38455;SDS011;24237;50.106;20.014;2022-12-18T08:30:17;95.97;;;30.52;;
38455;SDS011;24237;50.106;20.014;2022-12-18T08:32:43;87.13;;;30.27;;
38455;SDS011;24237;50.106;20.014;2022-12-18T08:35:08;79.88;;;28.85;;
38455;SDS011;24237;50.106;20.014;2022-12-18T08:37:36;80.93;;;28.38;;
38455;SDS011;24237;50.106;20.014;2022-12-18T08:40:02;92.75;;;30.35;;
38455;SDS011;24237;50.106;20.014;2022-12-18T08:42:28;95.50;;;31.60;;
38455;SDS011;24237;50.106;20.014;2022-12-18T08:45:12;80.68;;;26.48;;
38455;SDS011;24237;50.106;20.014;2022-12-18T08:47:38;85.88;;;30.88;;
38455;SDS011;24237;50.106;20.014;2022-12-18T08:50:03;93.85;;;31.02;;
38455;SDS011;24237;50.106;20.014;2022-12-18T08:52:31;83.28;;;27.48;;
38455;SDS011;24237;50.106;20.014;2022-12-18T08:54:57;88.43;;;30.95;;
38455;SDS011;24237;50.106;20.014;2022-12-18T08:57:26;86.80;;;29.23;;
38455;SDS011;24237;50.106;20.014;2022-12-18T08:59:51;86.40;;;30.67;;
38455;SDS011;24237;50.106;20.014;2022-12-18T09:02:17;86.75;;;30.80;;
38455;SDS011;24237;50.106;20.014;2022-12-18T09:04:42;90.70;;;29.35;;
38455;SDS011;24237;50.106;20.014;2022-12-18T09:07:08;86.50;;;30.55;;
38455;SDS011;24237;50.106;20.014;2022-12-18T09:09:34;86.95;;;31.15;;
38455;SDS011;24237;50.106;20.014;2022-12-18T09:12:00;83.18;;;29.63;;
38455;SDS011;24237;50.106;20.014;2022-12-18T09:14:26;87.32;;;29.42;;
38455;SDS011;24237;50.106;20.014;2022-12-18T09:16:51;95.28;;;30.00;;
38455;SDS011;24237;50.106;20.014;2022-12-18T09:19:17;88.28;;;28.25;;
38455;SDS011;24237;50.106;20.014;2022-12-18T09:21:43;91.55;;;29.67;;
38455;SDS011;24237;50.106;20.014;2022-12-18T09:24:10;82.50;;;31.33;;
38455;SDS011;24237;50.106;20.014;2022-12-18T09:26:38;79.30;;;29.67;;
38455;SDS011;24237;50.106;20.014;2022-12-18T09:29:03;100.45;;;32.47;;
38455;SDS011;24237;50.106;20.014;2022-12-18T09:31:29;81.03;;;29.75;;
38455;SDS011;24237;50.106;20.014;2022-12-18T09:33:55;82.47;;;30.73;;
38455;SDS011;24237;50.106;20.014;2022-12-18T09:36:21;84.43;;;29.73;;
38455;SDS011;24237;50.106;20.014;2022-12-18T09:38:47;101.00;;;31.73;;
38455;SDS011;24237;50.106;20.014;2022-12-18T09:44:00;89.05;;;30.42;;
38455;SDS011;24237;50.106;20.014;2022-12-18T09:46:52;92.10;;;31.63;;
38455;SDS011;24237;50.106;20.014;2022-12-18T09:49:32;90.03;;;30.50;;
38455;SDS011;24237;50.106;20.014;2022-12-18T09:52:08;90.43;;;28.67;;
38455;SDS011;24237;50.106;20.014;2022-12-18T09:54:44;76.20;;;29.85;;
38455;SDS011;24237;50.106;20.014;2022-12-18T09:57:42;94.55;;;30.55;;
38455;SDS011;24237;50.106;20.014;2022-12-18T10:00:19;92.53;;;31.23;;
38455;SDS011;24237;50.106;20.014;2022-12-18T10:02:50;88.28;;;31.40;;
38455;SDS011;24237;50.106;20.014;2022-12-18T10:05:24;75.25;;;27.77;;
38455;SDS011;24237;50.106;20.014;2022-12-18T10:10:51;95.70;;;31.38;;
38455;SDS011;24237;50.106;20.014;2022-12-18T10:19:56;80.88;;;28.10;;
38455;SDS011;24237;50.106;20.014;2022-12-18T10:22:38;93.78;;;31.13;;
38455;SDS011;24237;50.106;20.014;2022-12-18T10:25:22;87.93;;;28.05;;
38455;SDS011;24237;50.106;20.014;2022-12-18T10:27:52;93.28;;;32.42;;
38455;SDS011;24237;50.106;20.014;2022-12-18T10:30:23;98.47;;;33.10;;
38455;SDS011;24237;50.106;20.014;2022-12-18T10:33:16;96.35;;;31.80;;
38455;SDS011;24237;50.106;20.014;2022-12-18T10:35:44;104.32;;;32.47;;
38455;SDS011;24237;50.106;20.014;2022-12-18T10:43:35;88.30;;;28.60;;
38455;SDS011;24237;50.106;20.014;2022-12-18T10:48:36;99.80;;;35.22;;
38455;SDS011;24237;50.106;20.014;2022-12-18T10:51:02;94.18;;;32.95;;
38455;SDS011;24237;50.106;20.014;2022-12-18T10:53:29;113.13;;;35.75;;
38455;SDS011;24237;50.106;20.014;2022-12-18T10:58:27;108.90;;;32.95;;
38455;SDS011;24237;50.106;20.014;2022-12-18T11:01:16;103.90;;;33.38;;
38455;SDS011;24237;50.106;20.014;2022-12-18T11:06:24;92.32;;;30.73;;
38455;SDS011;24237;50.106;20.014;2022-12-18T11:08:57;94.75;;;33.15;;
38455;SDS011;24237;50.106;20.014;2022-12-18T11:11:25;86.18;;;30.52;;
38455;SDS011;24237;50.106;20.014;2022-12-18T11:14:29;84.03;;;29.87;;
38455;SDS011;24237;50.106;20.014;2022-12-18T11:16:58;78.80;;;28.15;;
38455;SDS011;24237;50.106;20.014;2022-12-18T11:19:40;79.68;;;28.10;;
38455;SDS011;24237;50.106;20.014;2022-12-18T11:22:25;70.50;;;28.13;;
38455;SDS011;24237;50.106;20.014;2022-12-18T11:24:57;89.43;;;30.33;;
38455;SDS011;24237;50.106;20.014;2022-12-18T11:29:50;81.32;;;30.45;;
38455;SDS011;24237;50.106;20.014;2022-12-18T11:34:57;76.93;;;27.98;;
38455;SDS011;24237;50.106;20.014;2022-12-18T11:37:51;80.88;;;26.30;;
38455;SDS011;24237;50.106;20.014;2022-12-18T11:40:27;72.43;;;27.67;;
38455;SDS011;24237;50.106;20.014;2022-12-18T11:45:27;58.15;;;23.23;;
38455;SDS011;24237;50.106;20.014;2022-12-18T11:50:57;70.38;;;27.88;;
38455;SDS011;24237;50.106;20.014;2022-12-18T11:53:26;63.85;;;24.60;;
38455;SDS011;24237;50.106;20.014;2022-12-18T11:59:09;62.38;;;24.15;;
38455;SDS011;24237;50.106;20.014;2022-12-18T12:01:46;58.80;;;23.40;;
38455;SDS011;24237;50.106;20.014;2022-12-18T12:04:29;73.20;;;26.08;;
38455;SDS011;24237;50.106;20.014;2022-12-18T12:07:45;63.25;;;21.35;;
38455;SDS011;24237;50.106;20.014;2022-12-18T12:10:38;68.72;;;23.35;;
38455;SDS011;24237;50.106;20.014;2022-12-18T12:26:39;70.97;;;26.15;;
38455;SDS011;24237;50.106;20.014;2022-12-18T12:38:24;76.10;;;26.95;;
38455;SDS011;24237;50.106;20.014;2022-12-18T12:41:01;85.30;;;26.73;;
38455;SDS011;24237;50.106;20.014;2022-12-18T12:43:53;69.00;;;25.45;;
38455;SDS011;24237;50.106;20.014;2022-12-18T12:46:23;63.75;;;23.10;;
38455;SDS011;24237;50.106;20.014;2022-12-18T12:48:54;64.35;;;24.20;;
38455;SDS011;24237;50.106;20.014;2022-12-18T12:54:17;81.35;;;28.77;;
38455;SDS011;24237;50.106;20.014;2022-12-18T13:00:02;64.90;;;25.77;;
38455;SDS011;24237;50.106;20.014;2022-12-18T13:02:42;69.80;;;26.02;;
38455;SDS011;24237;50.106;20.014;2022-12-18T13:08:11;67.53;;;25.02;;
38455;SDS011;24237;50.106;20.014;2022-12-18T13:10:47;67.22;;;24.23;;
38455;SDS011;24237;50.106;20.014;2022-12-18T13:13:14;68.00;;;24.02;;
38455;SDS011;24237;50.106;20.014;2022-12-18T13:15:46;71.18;;;24.73;;
38455;SDS011;24237;50.106;20.014;2022-12-18T13:18:33;70.97;;;24.40;;
38455;SDS011;24237;50.106;20.014;2022-12-18T13:23:35;66.22;;;25.05;;
38455;SDS011;24237;50.106;20.014;2022-12-18T13:31:11;63.70;;;23.20;;
38455;SDS011;24237;50.106;20.014;2022-12-18T13:36:44;65.25;;;24.05;;
38455;SDS011;24237;50.106;20.014;2022-12-18T13:39:20;64.50;;;24.42;;
38455;SDS011;24237;50.106;20.014;2022-12-18T13:41:51;62.35;;;22.83;;
38455;SDS011;24237;50.106;20.014;2022-12-18T13:44:58;56.25;;;22.77;;
38455;SDS011;24237;50.106;20.014;2022-12-18T13:47:27;59.90;;;22.20;;
38455;SDS011;24237;50.106;20.014;2022-12-18T13:50:00;60.63;;;23.02;;
38455;SDS011;24237;50.106;20.014;2022-12-18T13:52:35;67.97;;;24.67;;
38455;SDS011;24237;50.106;20.014;2022-12-18T13:55:05;62.30;;;23.35;;
38455;SDS011;24237;50.106;20.014;2022-12-18T13:57:39;66.82;;;24.63;;
38455;SDS011;24237;50.106;20.014;2022-12-18T14:00:30;72.55;;;26.02;;
38455;SDS011;24237;50.106;20.014;2022-12-18T14:02:56;69.35;;;24.33;;
38455;SDS011;24237;50.106;20.014;2022-12-18T14:05:29;72.85;;;27.20;;
38455;SDS011;24237;50.106;20.014;2022-12-18T14:08:03;75.60;;;24.83;;
38455;SDS011;24237;50.106;20.014;2022-12-18T14:10:31;78.78;;;27.85;;
38455;SDS011;24237;50.106;20.014;2022-12-18T14:12:57;85.25;;;28.50;;
38455;SDS011;24237;50.106;20.014;2022-12-18T14:15:42;72.95;;;26.98;;
38455;SDS011;24237;50.106;20.014;2022-12-18T14:21:21;86.05;;;29.38;;
38455;SDS011;24237;50.106;20.014;2022-12-18T14:24:12;84.53;;;28.08;;
38455;SDS011;24237;50.106;20.014;2022-12-18T14:26:41;83.47;;;30.33;;
38455;SDS011;24237;50.106;20.014;2022-12-18T14:31:44;91.13;;;31.33;;
38455;SDS011;24237;50.106;20.014;2022-12-18T14:34:16;82.05;;;31.98;;
38455;SDS011;24237;50.106;20.014;2022-12-18T14:36:51;101.07;;;31.75;;
38455;SDS011;24237;50.106;20.014;2022-12-18T14:39:18;105.97;;;33.25;;
38455;SDS011;24237;50.106;20.014;2022-12-18T14:41:43;102.25;;;33.30;;
38455;SDS011;24237;50.106;20.014;2022-12-18T14:44:10;101.80;;;32.90;;
38455;SDS011;24237;50.106;20.014;2022-12-18T14:46:39;96.50;;;34.03;;
38455;SDS011;24237;50.106;20.014;2022-12-18T14:51:41;110.80;;;34.67;;
38455;SDS011;24237;50.106;20.014;2022-12-18T14:54:17;115.20;;;36.97;;
38455;SDS011;24237;50.106;20.014;2022-12-18T14:56:45;108.85;;;35.30;;
38455;SDS011;24237;50.106;20.014;2022-12-18T14:59:14;104.50;;;35.50;;
38455;SDS011;24237;50.106;20.014;2022-12-18T15:01:46;106.53;;;35.08;;
38455;SDS011;24237;50.106;20.014;2022-12-18T15:04:35;102.32;;;34.25;;
38455;SDS011;24237;50.106;20.014;2022-12-18T15:07:17;102.20;;;34.78;;
38455;SDS011;24237;50.106;20.014;2022-12-18T15:10:02;112.85;;;37.60;;
38455;SDS011;24237;50.106;20.014;2022-12-18T15:12:37;109.38;;;35.38;;
38455;SDS011;24237;50.106;20.014;2022-12-18T15:17:59;112.90;;;39.75;;
38455;SDS011;24237;50.106;20.014;2022-12-18T15:20:31;114.18;;;38.00;;
38455;SDS011;24237;50.106;20.014;2022-12-18T15:23:16;117.65;;;40.72;;
38455;SDS011;24237;50.106;20.014;2022-12-18T15:26:02;114.32;;;39.67;;
38455;SDS011;24237;50.106;20.014;2022-12-18T15:33:40;122.00;;;41.83;;
38455;SDS011;24237;50.106;20.014;2022-12-18T15:36:12;126.97;;;40.45;;
38455;SDS011;24237;50.106;20.014;2022-12-18T15:38:39;129.45;;;43.17;;
38455;SDS011;24237;50.106;20.014;2022-12-18T15:41:05;127.37;;;42.33;;
38455;SDS011;24237;50.106;20.014;2022-12-18T15:43:37;118.18;;;39.58;;
38455;SDS011;24237;50.106;20.014;2022-12-18T15:46:04;127.47;;;41.97;;
38455;SDS011;24237;50.106;20.014;2022-12-18T15:48:33;130.38;;;43.58;;
38455;SDS011;24237;50.106;20.014;2022-12-18T15:51:09;141.60;;;44.30;;
38455;SDS011;24237;50.106;20.014;2022-12-18T15:53:41;140.77;;;45.33;;
38455;SDS011;24237;50.106;20.014;2022-12-18T15:56:10;126.97;;;44.08;;
38455;SDS011;24237;50.106;20.014;2022-12-18T15:58:55;131.57;;;42.03;;
38455;SDS011;24237;50.106;20.014;2022-12-18T16:01:22;138.82;;;44.88;;
38455;SDS011;24237;50.106;20.014;2022-12-18T16:03:49;129.73;;;42.53;;
38455;SDS011;24237;50.106;20.014;2022-12-18T16:06:15;132.52;;;41.95;;
38455;SDS011;24237;50.106;20.014;2022-12-18T16:08:40;136.45;;;44.38;;
38455;SDS011;24237;50.106;20.014;2022-12-18T16:11:08;141.20;;;44.30;;
38455;SDS011;24237;50.106;20.014;2022-12-18T16:14:03;122.40;;;43.17;;
38455;SDS011;24237;50.106;20.014;2022-12-18T16:16:30;134.65;;;45.22;;
38455;SDS011;24237;50.106;20.014;2022-12-18T16:18:56;126.15;;;43.20;;
38455;SDS011;24237;50.106;20.014;2022-12-18T16:21:21;139.40;;;43.47;;
38455;SDS011;24237;50.106;20.014;2022-12-18T16:23:47;126.32;;;42.03;;
38455;SDS011;24237;50.106;20.014;2022-12-18T16:26:12;138.73;;;43.63;;
38455;SDS011;24237;50.106;20.014;2022-12-18T16:28:38;126.00;;;41.47;;
38455;SDS011;24237;50.106;20.014;2022-12-18T16:31:04;138.25;;;44.88;;
38455;SDS011;24237;50.106;20.014;2022-12-18T16:33:30;126.40;;;42.17;;
38455;SDS011;24237;50.106;20.014;2022-12-18T16:35:55;133.13;;;42.80;;
38455;SDS011;24237;50.106;20.014;2022-12-18T16:38:21;136.38;;;44.20;;
38455;SDS011;24237;50.106;20.014;2022-12-18T16:40:47;128.88;;;41.70;;